Terminal Aerodrome Forecast
Issued by NWS

Current Version | Previous Version | Graphics & Text | Print | Product List | Glossary On
Versions: 1 2 3 4 5 6 7 8 9 10 11 12 13 14 15 16 17 18 19 20 21 22 23
000
FTUS41 KRLX 020200 AAA
TAFCKB
TAF AMD
KCKB 020227Z 0202/0224 20003KT P6SM SCT100
     FM020500 VRB03KT P6SM SCT040 SCT100
     FM021000 VRB03KT P6SM BKN040
     FM021400 22006KT P6SM BKN035
     FM021900 23009KT P6SM VCTS SCT035CB=

USA.gov is the U.S. government's official web portal to all federal, state and local government web resources and services.